Time;durP1;ratioP1;P1;durP2;ratioP2;P2;SDS_P1;SDS_P2;PMS_P1;PMS_P2;Temp;Humidity;BMP_temperature;BMP_pressure;BME280_temperature;BME280_humidity;BME280_pressure;Samples;Min_cycle;Max_cycle;Signal;HPM_P1;HPM_P2
2024/01/08 00:01:36;;;;;;;4.30;3.40;;;;;;;;;;5032661;28;20899;-53
2024/01/08 00:04:03;;;;;;;3.20;2.90;;;;;;;;;;5031937;28;20699;-53
2024/01/08 00:06:29;;;;;;;3.93;2.90;;;;;;;;;;5032510;28;20425;-51
2024/01/08 00:08:55;;;;;;;3.80;2.97;;;;;;;;;;5033835;28;20892;-53
2024/01/08 00:11:21;;;;;;;2.93;2.67;;;;;;;;;;5031446;28;20416;-52
2024/01/08 00:13:47;;;;;;;3.40;2.87;;;;;;;;;;5032265;28;20205;-52
2024/01/08 00:16:13;;;;;;;3.90;3.10;;;;;;;;;;5031990;28;20929;-52
2024/01/08 00:18:39;;;;;;;3.73;2.63;;;;;;;;;;5032127;28;20880;-52
2024/01/08 00:21:05;;;;;;;3.07;2.73;;;;;;;;;;5031021;28;20476;-55
2024/01/08 00:23:34;;;;;;;3.00;2.70;;;;;;;;;;5031489;28;20660;-55
2024/01/08 00:26:00;;;;;;;3.10;2.80;;;;;;;;;;5032015;28;20188;-55
2024/01/08 00:28:26;;;;;;;3.43;2.80;;;;;;;;;;5032980;28;20672;-55
2024/01/08 00:30:52;;;;;;;2.80;2.60;;;;;;;;;;5030504;28;20192;-53
2024/01/08 00:33:18;;;;;;;3.50;2.90;;;;;;;;;;5030968;28;20182;-53
2024/01/08 00:35:45;;;;;;;3.07;2.77;;;;;;;;;;5030898;28;20253;-54
2024/01/08 00:38:11;;;;;;;3.37;2.83;;;;;;;;;;5031219;28;20900;-53
2024/01/08 00:40:37;;;;;;;2.93;2.70;;;;;;;;;;5024845;28;20496;-54
2024/01/08 00:43:03;;;;;;;2.63;2.43;;;;;;;;;;5030935;28;20181;-53
2024/01/08 00:45:29;;;;;;;3.57;2.80;;;;;;;;;;5030570;28;20409;-54
2024/01/08 00:47:55;;;;;;;4.23;3.37;;;;;;;;;;5030831;28;20185;-54
2024/01/08 00:50:21;;;;;;;3.07;2.80;;;;;;;;;;5029824;28;20521;-54
2024/01/08 00:52:47;;;;;;;5.70;3.40;;;;;;;;;;5034346;28;20598;-53
2024/01/08 00:55:13;;;;;;;3.50;3.13;;;;;;;;;;5030939;28;20908;-54
2024/01/08 00:57:39;;;;;;;3.60;3.30;;;;;;;;;;5031188;28;20441;-54
2024/01/08 01:00:06;;;;;;;3.80;3.03;;;;;;;;;;5029964;28;20467;-54
2024/01/08 01:02:32;;;;;;;3.90;2.87;;;;;;;;;;5022051;28;20503;-55
2024/01/08 01:04:58;;;;;;;3.23;2.60;;;;;;;;;;5030897;28;20436;-54
2024/01/08 01:07:26;;;;;;;3.83;3.10;;;;;;;;;;5028511;28;20185;-53
2024/01/08 01:09:52;;;;;;;3.43;3.00;;;;;;;;;;5030046;28;21096;-52
2024/01/08 01:12:18;;;;;;;4.10;2.80;;;;;;;;;;5029968;28;20511;-54
2024/01/08 01:14:44;;;;;;;3.07;2.77;;;;;;;;;;5031252;28;20438;-53
2024/01/08 01:17:10;;;;;;;3.30;2.83;;;;;;;;;;5031699;28;20174;-53
2024/01/08 01:19:36;;;;;;;3.50;2.93;;;;;;;;;;5030218;28;21016;-53
2024/01/08 01:22:02;;;;;;;4.87;3.20;;;;;;;;;;5029867;28;20257;-54
2024/01/08 01:24:28;;;;;;;3.53;3.23;;;;;;;;;;5030790;28;20440;-53
2024/01/08 01:26:54;;;;;;;2.83;2.53;;;;;;;;;;5031636;28;20489;-54
2024/01/08 01:29:20;;;;;;;3.33;2.60;;;;;;;;;;5029626;28;20424;-53
2024/01/08 01:31:46;;;;;;;3.43;2.87;;;;;;;;;;5030090;28;20178;-53
2024/01/08 01:34:13;;;;;;;3.43;3.10;;;;;;;;;;5030193;28;20428;-53
2024/01/08 01:36:39;;;;;;;3.37;3.07;;;;;;;;;;5030464;28;20178;-54
2024/01/08 01:39:06;;;;;;;3.40;2.70;;;;;;;;;;5029555;28;20947;-53
2024/01/08 01:41:33;;;;;;;3.00;2.70;;;;;;;;;;5033057;28;20464;-55
2024/01/08 01:43:59;;;;;;;4.00;3.60;;;;;;;;;;5029444;28;20189;-56
2024/01/08 01:46:26;;;;;;;3.43;3.10;;;;;;;;;;5029366;28;20212;-56
2024/01/08 01:48:52;;;;;;;4.23;3.30;;;;;;;;;;5029130;28;20417;-56
2024/01/08 01:51:18;;;;;;;3.40;3.10;;;;;;;;;;5029354;28;20200;-56
2024/01/08 01:53:45;;;;;;;4.43;3.23;;;;;;;;;;5030159;28;20556;-55
2024/01/08 01:56:12;;;;;;;3.97;3.50;;;;;;;;;;5030028;28;20170;-56
2024/01/08 01:58:38;;;;;;;3.73;3.17;;;;;;;;;;5029686;28;20888;-56
2024/01/08 02:01:04;;;;;;;3.80;3.33;;;;;;;;;;5029778;28;20452;-56
2024/01/08 02:03:31;;;;;;;3.50;3.20;;;;;;;;;;5029456;28;20236;-55
2024/01/08 02:05:57;;;;;;;4.17;3.50;;;;;;;;;;5029154;28;20508;-56
2024/01/08 02:08:24;;;;;;;3.23;2.93;;;;;;;;;;5029446;28;20253;-55
2024/01/08 02:10:50;;;;;;;4.07;2.83;;;;;;;;;;5030450;28;20962;-56
2024/01/08 02:13:16;;;;;;;4.77;3.80;;;;;;;;;;5029509;28;20727;-55
2024/01/08 02:15:42;;;;;;;4.70;3.20;;;;;;;;;;5027834;28;20420;-55
2024/01/08 02:18:08;;;;;;;3.40;3.10;;;;;;;;;;5029604;28;20192;-55
2024/01/08 02:20:34;;;;;;;3.83;3.27;;;;;;;;;;5029460;28;20226;-56
2024/01/08 02:23:00;;;;;;;3.40;3.10;;;;;;;;;;5029489;28;20319;-56
2024/01/08 02:25:26;;;;;;;3.70;3.20;;;;;;;;;;5030100;28;20232;-55
2024/01/08 02:27:52;;;;;;;5.53;3.60;;;;;;;;;;5028698;28;21026;-55
2024/01/08 02:30:19;;;;;;;4.20;3.80;;;;;;;;;;5028152;28;20208;-56
2024/01/08 02:32:45;;;;;;;3.80;3.30;;;;;;;;;;5029032;28;20472;-55
2024/01/08 02:35:11;;;;;;;3.73;3.40;;;;;;;;;;5028530;28;20443;-56
2024/01/08 02:37:37;;;;;;;3.53;3.23;;;;;;;;;;5027902;28;20948;-55
2024/01/08 02:40:03;;;;;;;3.50;3.13;;;;;;;;;;5028953;28;20861;-55
2024/01/08 02:42:29;;;;;;;4.37;3.77;;;;;;;;;;5028077;28;20464;-55
2024/01/08 02:44:56;;;;;;;3.80;3.43;;;;;;;;;;5027604;28;20452;-56
2024/01/08 02:47:22;;;;;;;3.80;3.40;;;;;;;;;;5028422;28;20183;-55
2024/01/08 02:49:48;;;;;;;4.00;3.43;;;;;;;;;;5027431;28;20460;-56
2024/01/08 02:52:14;;;;;;;3.83;3.20;;;;;;;;;;5026609;28;20475;-56
2024/01/08 02:54:40;;;;;;;4.20;3.73;;;;;;;;;;5027769;28;20269;-56
2024/01/08 02:57:06;;;;;;;4.53;3.57;;;;;;;;;;5027228;28;20264;-56
2024/01/08 02:59:32;;;;;;;3.50;3.20;;;;;;;;;;5027860;28;20440;-56
2024/01/08 03:01:59;;;;;;;4.23;3.50;;;;;;;;;;5028207;28;20463;-56
2024/01/08 03:04:25;;;;;;;4.97;3.73;;;;;;;;;;5028383;28;20185;-56
2024/01/08 03:06:51;;;;;;;4.00;3.60;;;;;;;;;;5028921;28;20451;-56
2024/01/08 03:09:17;;;;;;;3.83;3.03;;;;;;;;;;5026636;28;20454;-55
2024/01/08 03:11:43;;;;;;;4.07;3.53;;;;;;;;;;5026487;28;20949;-56
2024/01/08 03:14:09;;;;;;;3.73;3.37;;;;;;;;;;5027502;28;20782;-55
2024/01/08 03:16:35;;;;;;;4.20;3.80;;;;;;;;;;5028089;28;20868;-56
2024/01/08 03:19:01;;;;;;;3.00;2.70;;;;;;;;;;5027844;28;20182;-56
2024/01/08 03:21:27;;;;;;;3.53;3.23;;;;;;;;;;5014737;28;20472;-56
2024/01/08 03:23:53;;;;;;;5.03;3.57;;;;;;;;;;5028477;28;20519;-56
2024/01/08 03:26:19;;;;;;;3.90;3.20;;;;;;;;;;5031443;28;20428;-56
2024/01/08 03:28:45;;;;;;;3.93;3.20;;;;;;;;;;5029500;28;20882;-55
2024/01/08 03:31:11;;;;;;;4.57;3.40;;;;;;;;;;5031441;28;20174;-56
2024/01/08 03:33:37;;;;;;;4.87;3.73;;;;;;;;;;5032182;28;20173;-56
2024/01/08 03:36:03;;;;;;;4.10;3.47;;;;;;;;;;5033236;28;20173;-55
2024/01/08 03:38:29;;;;;;;5.47;4.27;;;;;;;;;;5031122;28;20562;-55
2024/01/08 03:40:55;;;;;;;4.23;3.67;;;;;;;;;;5031314;28;20543;-55
2024/01/08 03:43:22;;;;;;;4.57;3.83;;;;;;;;;;5032971;28;20178;-55
2024/01/08 03:45:48;;;;;;;4.47;4.03;;;;;;;;;;5031504;28;20474;-56
2024/01/08 03:48:14;;;;;;;4.30;3.77;;;;;;;;;;5032546;28;20811;-56
2024/01/08 03:50:40;;;;;;;3.77;3.47;;;;;;;;;;5032857;28;20190;-56
2024/01/08 03:53:06;;;;;;;4.67;3.43;;;;;;;;;;5030929;28;20196;-56
2024/01/08 03:55:33;;;;;;;5.03;3.70;;;;;;;;;;5032024;28;20889;-55
2024/01/08 03:58:00;;;;;;;4.13;3.73;;;;;;;;;;5031786;28;20452;-55
2024/01/08 04:00:26;;;;;;;4.73;3.33;;;;;;;;;;5033075;28;21009;-55
2024/01/08 04:02:52;;;;;;;4.10;3.70;;;;;;;;;;5032134;28;20401;-53
2024/01/08 04:05:18;;;;;;;4.40;3.77;;;;;;;;;;5032851;28;20393;-51
2024/01/08 04:07:44;;;;;;;6.17;3.87;;;;;;;;;;5032216;28;20596;-52
2024/01/08 04:10:10;;;;;;;4.17;3.47;;;;;;;;;;5031056;28;20821;-54
2024/01/08 04:12:36;;;;;;;3.77;3.33;;;;;;;;;;5031946;28;20435;-53
2024/01/08 04:15:02;;;;;;;3.73;3.33;;;;;;;;;;5032146;28;20405;-52
2024/01/08 04:17:28;;;;;;;4.10;3.67;;;;;;;;;;5032152;28;20170;-52
2024/01/08 04:19:54;;;;;;;4.17;3.77;;;;;;;;;;5030963;28;20415;-52
2024/01/08 04:22:20;;;;;;;3.70;3.40;;;;;;;;;;5031475;28;20397;-52
2024/01/08 04:24:46;;;;;;;3.70;3.37;;;;;;;;;;5031750;28;20411;-52
2024/01/08 04:27:13;;;;;;;4.97;4.23;;;;;;;;;;5031692;28;20404;-53
2024/01/08 04:29:39;;;;;;;4.40;3.93;;;;;;;;;;5030832;28;20504;-52
2024/01/08 04:32:05;;;;;;;4.00;3.70;;;;;;;;;;5030758;28;21089;-52
2024/01/08 04:34:32;;;;;;;4.70;3.90;;;;;;;;;;5031573;28;20827;-52
2024/01/08 04:36:58;;;;;;;4.70;4.20;;;;;;;;;;5030678;28;20435;-54
2024/01/08 04:39:24;;;;;;;4.83;3.87;;;;;;;;;;5031779;28;20927;-51
2024/01/08 04:41:50;;;;;;;5.23;4.00;;;;;;;;;;5032372;28;20909;-52
2024/01/08 04:44:16;;;;;;;4.93;3.83;;;;;;;;;;5030674;28;20421;-53
2024/01/08 04:46:43;;;;;;;4.63;4.07;;;;;;;;;;5032074;28;20435;-51
2024/01/08 04:49:09;;;;;;;4.00;3.60;;;;;;;;;;5031074;28;20924;-52
2024/01/08 04:51:35;;;;;;;5.10;4.23;;;;;;;;;;5027707;28;20859;-52
2024/01/08 04:54:01;;;;;;;4.10;3.63;;;;;;;;;;5029077;28;20482;-52
2024/01/08 04:56:27;;;;;;;4.10;3.70;;;;;;;;;;5013818;28;20402;-51
2024/01/08 04:58:54;;;;;;;4.33;3.93;;;;;;;;;;5030599;28;20424;-52
2024/01/08 05:01:20;;;;;;;4.27;3.67;;;;;;;;;;5030144;28;20452;-52
2024/01/08 05:03:46;;;;;;;4.97;3.87;;;;;;;;;;5033460;28;20892;-53
2024/01/08 05:06:12;;;;;;;4.90;4.40;;;;;;;;;;5031353;28;20420;-52
2024/01/08 05:08:39;;;;;;;4.57;3.60;;;;;;;;;;5030607;28;20421;-52
2024/01/08 05:11:06;;;;;;;4.13;3.73;;;;;;;;;;5030542;28;20404;-54
2024/01/08 05:13:32;;;;;;;4.80;4.30;;;;;;;;;;5030583;28;20594;-53
2024/01/08 05:15:58;;;;;;;4.33;3.93;;;;;;;;;;5030461;28;20412;-52
2024/01/08 05:18:24;;;;;;;6.07;4.23;;;;;;;;;;5031087;28;20428;-52
2024/01/08 05:20:50;;;;;;;6.53;4.53;;;;;;;;;;5028872;28;20472;-53
2024/01/08 05:23:16;;;;;;;5.90;4.43;;;;;;;;;;5030039;28;20761;-52
2024/01/08 05:25:42;;;;;;;5.57;4.47;;;;;;;;;;5030559;28;20404;-52
2024/01/08 05:28:09;;;;;;;6.57;4.10;;;;;;;;;;5030294;28;20419;-53
2024/01/08 05:30:35;;;;;;;6.23;4.77;;;;;;;;;;5029781;28;20944;-52
2024/01/08 05:33:01;;;;;;;4.73;4.17;;;;;;;;;;5030590;28;20892;-52
2024/01/08 05:35:27;;;;;;;4.57;4.10;;;;;;;;;;5029568;28;20474;-52
2024/01/08 05:37:53;;;;;;;5.50;4.40;;;;;;;;;;5029959;28;20201;-52
2024/01/08 05:40:19;;;;;;;4.87;4.33;;;;;;;;;;5029859;28;20460;-52
2024/01/08 05:42:45;;;;;;;5.23;4.07;;;;;;;;;;5029346;28;20182;-52
2024/01/08 05:45:11;;;;;;;4.90;4.30;;;;;;;;;;5041763;28;20482;-52
2024/01/08 05:47:37;;;;;;;4.70;4.20;;;;;;;;;;5030329;28;20497;-52
2024/01/08 05:50:04;;;;;;;4.97;4.10;;;;;;;;;;5017920;28;20175;-52
2024/01/08 05:52:30;;;;;;;5.47;4.63;;;;;;;;;;5030024;28;20224;-52
2024/01/08 05:54:57;;;;;;;5.00;4.50;;;;;;;;;;5030389;28;20196;-52
2024/01/08 05:57:23;;;;;;;4.77;4.27;;;;;;;;;;5027895;28;20907;-52
2024/01/08 05:59:49;;;;;;;5.17;4.67;;;;;;;;;;5023225;28;20174;-52
2024/01/08 06:02:15;;;;;;;5.13;4.63;;;;;;;;;;5025848;28;20536;-52
2024/01/08 06:04:41;;;;;;;5.10;4.60;;;;;;;;;;5028168;28;20543;-52
2024/01/08 06:07:07;;;;;;;5.20;4.33;;;;;;;;;;5026145;28;20436;-53
2024/01/08 06:09:33;;;;;;;4.70;4.13;;;;;;;;;;5031372;28;20181;-53
2024/01/08 06:11:59;;;;;;;6.83;4.67;;;;;;;;;;5028118;28;20434;-52
2024/01/08 06:14:25;;;;;;;6.83;4.63;;;;;;;;;;5029209;28;20445;-54
2024/01/08 06:16:52;;;;;;;5.90;4.63;;;;;;;;;;5025981;28;20233;-52
2024/01/08 06:19:18;;;;;;;5.70;4.60;;;;;;;;;;5038066;28;20831;-52
2024/01/08 06:21:44;;;;;;;5.83;5.20;;;;;;;;;;5033521;28;20288;-53
2024/01/08 06:24:10;;;;;;;6.20;4.77;;;;;;;;;;5029258;28;20178;-55
2024/01/08 06:26:36;;;;;;;5.53;4.47;;;;;;;;;;5029179;28;20181;-55
2024/01/08 06:29:03;;;;;;;4.30;3.90;;;;;;;;;;5029693;28;20201;-55
2024/01/08 06:31:29;;;;;;;9.33;4.80;;;;;;;;;;5028148;28;20417;-55
2024/01/08 06:33:55;;;;;;;4.73;4.27;;;;;;;;;;5024729;28;20429;-55
2024/01/08 06:36:21;;;;;;;5.87;4.97;;;;;;;;;;5030701;28;20173;-55
2024/01/08 06:38:47;;;;;;;6.40;5.10;;;;;;;;;;5029136;28;20416;-55
2024/01/08 06:41:13;;;;;;;6.00;4.43;;;;;;;;;;5021685;28;20201;-55
2024/01/08 06:43:39;;;;;;;4.73;4.07;;;;;;;;;;5027156;28;20421;-55
2024/01/08 06:46:08;;;;;;;7.20;4.77;;;;;;;;;;5028669;28;20931;-55
2024/01/08 06:48:34;;;;;;;5.13;4.40;;;;;;;;;;5029163;28;20185;-55
2024/01/08 06:51:04;;;;;;;5.03;4.13;;;;;;;;;;5029406;28;20428;-55
2024/01/08 06:53:30;;;;;;;5.20;4.70;;;;;;;;;;5028978;28;20210;-55
2024/01/08 06:55:56;;;;;;;5.07;4.23;;;;;;;;;;5028133;28;20417;-55
2024/01/08 06:58:22;;;;;;;5.13;4.43;;;;;;;;;;5023445;28;20432;-55
2024/01/08 07:00:48;;;;;;;4.70;4.10;;;;;;;;;;5031094;28;20202;-55
2024/01/08 07:03:14;;;;;;;5.37;4.13;;;;;;;;;;5033370;28;20413;-55
2024/01/08 07:05:40;;;;;;;5.33;4.40;;;;;;;;;;5032588;28;20202;-55
2024/01/08 07:08:07;;;;;;;5.77;4.10;;;;;;;;;;5031452;28;20504;-55
2024/01/08 07:10:34;;;;;;;5.33;4.83;;;;;;;;;;5033137;28;20506;-55
2024/01/08 07:13:01;;;;;;;4.97;4.47;;;;;;;;;;5040834;28;20516;-55
2024/01/08 07:15:46;;;;;;;4.43;3.97;;;;;;;;;;5033334;28;20409;-55
2024/01/08 07:18:13;;;;;;;6.03;4.53;;;;;;;;;;5015171;28;20881;-55
2024/01/08 07:20:39;;;;;;;4.27;3.87;;;;;;;;;;5035387;28;20483;-55
2024/01/08 07:23:06;;;;;;;5.77;3.83;;;;;;;;;;5045186;28;20457;-55
2024/01/08 07:25:34;;;;;;;6.20;4.30;;;;;;;;;;5024389;28;20466;-55
2024/01/08 07:28:00;;;;;;;5.50;4.20;;;;;;;;;;5030987;28;20408;-55
2024/01/08 07:30:27;;;;;;;4.43;3.70;;;;;;;;;;5030885;28;20486;-55
2024/01/08 07:32:53;;;;;;;3.73;3.40;;;;;;;;;;5033620;28;20432;-54
2024/01/08 07:35:19;;;;;;;5.23;4.17;;;;;;;;;;5032313;28;20460;-54
2024/01/08 07:37:45;;;;;;;4.67;4.10;;;;;;;;;;5032311;28;20404;-54
2024/01/08 07:40:11;;;;;;;4.80;3.90;;;;;;;;;;5039782;28;20780;-53
2024/01/08 07:42:37;;;;;;;6.33;3.87;;;;;;;;;;5025054;28;20917;-53
2024/01/08 07:45:03;;;;;;;4.40;4.00;;;;;;;;;;5030590;28;20401;-55
2024/01/08 07:47:29;;;;;;;4.37;3.97;;;;;;;;;;5030457;28;20830;-53
2024/01/08 07:49:55;;;;;;;5.47;4.03;;;;;;;;;;5029379;28;20546;-53
2024/01/08 07:52:21;;;;;;;3.53;3.10;;;;;;;;;;5035277;28;20234;-53
2024/01/08 07:54:47;;;;;;;10.90;3.77;;;;;;;;;;5035681;28;20491;-53
2024/01/08 07:57:13;;;;;;;6.67;4.47;;;;;;;;;;5030865;28;20756;-53
2024/01/08 07:59:39;;;;;;;4.90;4.20;;;;;;;;;;5030772;28;20771;-54
2024/01/08 08:02:06;;;;;;;5.13;3.53;;;;;;;;;;5037738;28;20459;-54
2024/01/08 08:04:32;;;;;;;4.67;4.10;;;;;;;;;;5029875;28;20182;-53
2024/01/08 08:06:58;;;;;;;4.60;4.03;;;;;;;;;;5029927;28;20425;-53
2024/01/08 08:09:24;;;;;;;4.23;3.67;;;;;;;;;;5029445;28;20470;-53
2024/01/08 08:11:50;;;;;;;4.43;4.03;;;;;;;;;;5030559;28;20245;-53
2024/01/08 08:14:16;;;;;;;6.13;4.13;;;;;;;;;;5036422;28;20251;-53
2024/01/08 08:16:42;;;;;;;6.30;4.23;;;;;;;;;;5036074;28;20184;-53
2024/01/08 08:19:08;;;;;;;4.87;3.73;;;;;;;;;;5031259;28;20397;-53
2024/01/08 08:21:38;;;;;;;5.07;3.87;;;;;;;;;;5031925;28;20877;-53
2024/01/08 08:24:04;;;;;;;3.93;3.53;;;;;;;;;;5037556;28;20417;-53
2024/01/08 08:26:30;;;;;;;5.67;3.83;;;;;;;;;;5031772;28;20397;-54
2024/01/08 08:28:56;;;;;;;4.03;3.63;;;;;;;;;;5031844;28;20185;-53
2024/01/08 08:31:22;;;;;;;5.20;4.30;;;;;;;;;;5032346;28;20954;-54
2024/01/08 08:33:49;;;;;;;5.87;4.47;;;;;;;;;;5028443;28;21136;-54
2024/01/08 08:36:15;;;;;;;4.37;3.97;;;;;;;;;;5031229;28;20951;-54
2024/01/08 08:38:41;;;;;;;4.60;4.13;;;;;;;;;;5029289;28;20496;-53
2024/01/08 08:41:07;;;;;;;5.47;4.13;;;;;;;;;;5029652;28;20459;-53
2024/01/08 08:43:34;;;;;;;6.10;4.23;;;;;;;;;;5038992;28;20413;-55
2024/01/08 08:46:00;;;;;;;4.57;3.87;;;;;;;;;;5030568;28;20440;-56
2024/01/08 08:48:26;;;;;;;5.57;4.10;;;;;;;;;;5031486;28;20471;-55
2024/01/08 08:50:52;;;;;;;3.87;3.50;;;;;;;;;;5032285;28;20419;-56
2024/01/08 08:53:19;;;;;;;5.10;4.23;;;;;;;;;;5031356;28;20404;-56
2024/01/08 08:55:45;;;;;;;4.73;3.80;;;;;;;;;;5030773;28;20401;-56
2024/01/08 08:58:11;;;;;;;4.67;3.60;;;;;;;;;;5031333;28;20419;-56
2024/01/08 09:00:37;;;;;;;4.83;4.33;;;;;;;;;;5041229;28;20466;-56
2024/01/08 09:03:03;;;;;;;5.13;3.90;;;;;;;;;;5039441;28;20448;-56
2024/01/08 09:05:30;;;;;;;4.20;3.77;;;;;;;;;;5030496;28;20459;-56
2024/01/08 09:07:56;;;;;;;5.20;4.40;;;;;;;;;;5029470;28;21282;-55
2024/01/08 09:10:22;;;;;;;6.53;4.20;;;;;;;;;;5029367;28;20915;-55
2024/01/08 09:12:48;;;;;;;5.67;4.57;;;;;;;;;;5029954;28;20780;-55
2024/01/08 09:15:14;;;;;;;4.20;3.80;;;;;;;;;;5030532;28;20892;-56
2024/01/08 09:17:40;;;;;;;3.97;3.63;;;;;;;;;;5030192;28;20405;-56
2024/01/08 09:20:09;;;;;;;5.40;4.27;;;;;;;;;;5029631;28;20440;-56
2024/01/08 09:22:35;;;;;;;4.47;4.07;;;;;;;;;;5029980;28;20496;-56
2024/01/08 09:25:01;;;;;;;5.07;4.00;;;;;;;;;;5029480;28;20901;-56
2024/01/08 09:27:28;;;;;;;4.30;3.63;;;;;;;;;;5030800;28;20936;-56
2024/01/08 09:29:54;;;;;;;4.33;3.77;;;;;;;;;;5034801;28;20407;-56
2024/01/08 09:32:20;;;;;;;4.50;4.10;;;;;;;;;;5031679;28;20404;-56
2024/01/08 09:34:46;;;;;;;5.37;4.50;;;;;;;;;;5030164;28;20243;-56
2024/01/08 09:37:12;;;;;;;5.97;4.50;;;;;;;;;;5030294;28;20182;-56
2024/01/08 09:39:39;;;;;;;4.20;3.63;;;;;;;;;;5027633;28;20264;-56
2024/01/08 09:42:06;;;;;;;4.47;3.80;;;;;;;;;;5024680;28;20456;-56
2024/01/08 09:44:32;;;;;;;4.27;3.60;;;;;;;;;;5030976;28;20514;-56
2024/01/08 09:46:58;;;;;;;4.57;3.20;;;;;;;;;;5030027;28;20400;-55
2024/01/08 09:49:24;;;;;;;4.57;3.90;;;;;;;;;;5028487;28;20462;-56
2024/01/08 09:51:50;;;;;;;3.33;2.97;;;;;;;;;;5030345;28;20429;-56
2024/01/08 09:54:20;;;;;;;4.97;3.43;;;;;;;;;;5030036;28;20409;-56
2024/01/08 09:56:50;;;;;;;3.80;3.30;;;;;;;;;;5032171;28;20416;-56
2024/01/08 09:59:16;;;;;;;4.10;2.77;;;;;;;;;;5028561;28;20449;-56
2024/01/08 10:01:42;;;;;;;3.33;3.00;;;;;;;;;;5029757;28;20456;-56
2024/01/08 10:04:09;;;;;;;3.13;2.70;;;;;;;;;;5028880;28;20942;-55
2024/01/08 10:06:35;;;;;;;4.43;2.87;;;;;;;;;;5029673;28;20443;-56
2024/01/08 10:09:02;;;;;;;5.17;3.20;;;;;;;;;;5029146;28;20416;-55
2024/01/08 10:11:28;;;;;;;3.73;3.07;;;;;;;;;;5027920;28;20408;-56
2024/01/08 10:13:55;;;;;;;3.37;3.07;;;;;;;;;;5029478;28;20439;-56
2024/01/08 10:16:21;;;;;;;4.03;3.20;;;;;;;;;;5026862;28;20527;-56
2024/01/08 10:18:47;;;;;;;4.50;2.83;;;;;;;;;;5029284;28;20205;-56
2024/01/08 10:21:15;;;;;;;4.50;3.20;;;;;;;;;;5029810;28;20990;-56
2024/01/08 10:23:41;;;;;;;3.17;2.87;;;;;;;;;;5027358;28;20456;-55
2024/01/08 10:26:11;;;;;;;4.33;2.87;;;;;;;;;;5027294;28;20174;-55
2024/01/08 10:28:37;;;;;;;4.00;3.00;;;;;;;;;;5029865;28;20173;-56
2024/01/08 10:31:07;;;;;;;3.10;2.80;;;;;;;;;;5029111;28;20417;-55
2024/01/08 10:33:34;;;;;;;3.30;2.70;;;;;;;;;;5012075;28;20174;-55
2024/01/08 10:36:07;;;;;;;2.67;2.20;;;;;;;;;;5027252;28;20426;-54
2024/01/08 10:38:34;;;;;;;2.97;2.67;;;;;;;;;;5030156;28;20217;-54
2024/01/08 10:41:01;;;;;;;4.10;3.20;;;;;;;;;;5028928;28;20567;-53
2024/01/08 10:43:30;;;;;;;3.10;2.80;;;;;;;;;;5029215;28;20170;-54
2024/01/08 10:46:00;;;;;;;4.22;3.03;;;;;;;;;;5028152;28;20415;-53
2024/01/08 10:48:35;;;;;;;3.73;2.97;;;;;;;;;;5026352;28;20162;-53
2024/01/08 10:51:03;;;;;;;4.30;2.73;;;;;;;;;;5026097;28;20178;-54
2024/01/08 10:53:46;;;;;;;2.77;2.00;;;;;;;;;;5023539;28;20409;-53
2024/01/08 10:56:15;;;;;;;3.10;2.80;;;;;;;;;;5028625;28;20435;-54
2024/01/08 10:58:50;;;;;;;4.17;2.70;;;;;;;;;;5033068;28;20178;-54
2024/01/08 11:01:17;;;;;;;2.83;2.27;;;;;;;;;;5032168;28;20547;-54
2024/01/08 11:03:43;;;;;;;3.87;2.93;;;;;;;;;;5028016;28;20435;-53
2024/01/08 11:06:11;;;;;;;3.57;2.13;;;;;;;;;;5029014;28;20178;-53
2024/01/08 11:08:37;;;;;;;3.00;2.67;;;;;;;;;;5027297;28;20424;-53
2024/01/08 11:11:10;;;;;;;3.50;2.23;;;;;;;;;;5029014;28;20504;-54
2024/01/08 11:13:39;;;;;;;3.20;2.77;;;;;;;;;;5020936;28;20221;-54
2024/01/08 11:44:22;;;;;;;3.57;2.60;;;;;;;;;;5005235;28;20507;-54
2024/01/08 11:46:48;;;;;;;2.93;2.13;;;;;;;;;;5024342;28;20441;-55
2024/01/08 11:49:14;;;;;;;3.30;2.60;;;;;;;;;;5026041;28;20535;-55
2024/01/08 11:51:42;;;;;;;4.97;3.00;;;;;;;;;;5022811;28;20174;-55
2024/01/08 11:54:11;;;;;;;2.47;2.00;;;;;;;;;;5018175;28;20174;-55
2024/01/08 11:56:37;;;;;;;2.90;2.60;;;;;;;;;;5033984;28;20247;-55
2024/01/08 11:59:03;;;;;;;3.67;2.70;;;;;;;;;;5026912;28;20238;-55
2024/01/08 12:01:30;;;;;;;4.40;2.57;;;;;;;;;;5022648;28;20206;-55
2024/01/08 12:03:59;;;;;;;7.10;3.93;;;;;;;;;;5021889;28;21192;-55
2024/01/08 12:06:28;;;;;;;2.50;2.30;;;;;;;;;;5033342;28;20261;-57
2024/01/08 12:08:55;;;;;;;3.43;2.37;;;;;;;;;;5034058;28;20449;-55
2024/01/08 12:11:24;;;;;;;2.93;2.23;;;;;;;;;;5028698;28;20569;-55
2024/01/08 12:13:51;;;;;;;2.73;2.13;;;;;;;;;;5014022;28;20204;-55
2024/01/08 12:16:17;;;;;;;5.82;2.95;;;;;;;;;;5015774;28;20413;-55
2024/01/08 12:18:43;;;;;;;5.40;2.30;;;;;;;;;;5018316;28;20219;-55
2024/01/08 12:21:10;;;;;;;14.53;3.00;;;;;;;;;;5014386;28;20194;-54
2024/01/08 12:23:36;;;;;;;3.10;2.47;;;;;;;;;;5024740;28;20188;-55
2024/01/08 12:26:03;;;;;;;2.53;2.33;;;;;;;;;;5032756;28;20587;-55
2024/01/08 12:28:29;;;;;;;4.10;2.70;;;;;;;;;;5023929;28;20208;-55
2024/01/08 12:30:55;;;;;;;3.37;2.67;;;;;;;;;;5017019;28;20634;-54
2024/01/08 12:33:21;;;;;;;4.73;2.40;;;;;;;;;;5014370;28;20173;-54
2024/01/08 12:35:52;;;;;;;2.93;2.47;;;;;;;;;;5014145;28;20190;-55
2024/01/08 12:38:19;;;;;;;3.77;2.30;;;;;;;;;;5024572;28;20254;-55
2024/01/08 12:40:45;;;;;;;3.40;2.63;;;;;;;;;;5026810;28;20284;-54
2024/01/08 12:43:11;;;;;;;3.50;2.37;;;;;;;;;;5015380;28;20203;-55
2024/01/08 12:45:37;;;;;;;2.60;2.30;;;;;;;;;;5025461;28;20225;-55
2024/01/08 12:48:03;;;;;;;2.57;2.23;;;;;;;;;;5032418;28;20584;-55
2024/01/08 12:50:29;;;;;;;5.27;3.17;;;;;;;;;;5021828;28;20178;-55
2024/01/08 12:52:55;;;;;;;2.83;2.30;;;;;;;;;;5015796;28;20174;-55
2024/01/08 12:55:21;;;;;;;2.60;2.03;;;;;;;;;;5017860;28;20174;-54
2024/01/08 12:57:47;;;;;;;2.90;2.20;;;;;;;;;;5026659;28;20182;-54
2024/01/08 13:00:13;;;;;;;2.93;2.50;;;;;;;;;;5018893;28;20175;-54
2024/01/08 13:02:39;;;;;;;2.90;2.23;;;;;;;;;;5016245;28;20257;-54
2024/01/08 13:05:05;;;;;;;5.43;2.87;;;;;;;;;;5013520;28;20622;-54
2024/01/08 13:07:31;;;;;;;3.17;2.70;;;;;;;;;;5013874;28;20633;-54
2024/01/08 13:09:57;;;;;;;2.77;2.50;;;;;;;;;;5014722;28;20171;-54
2024/01/08 13:12:23;;;;;;;3.27;2.47;;;;;;;;;;5016406;28;20217;-54
2024/01/08 13:14:49;;;;;;;3.40;2.53;;;;;;;;;;5022296;28;21862;-54
2024/01/08 13:17:16;;;;;;;3.30;2.40;;;;;;;;;;5024298;28;21045;-54
2024/01/08 13:19:42;;;;;;;2.97;2.47;;;;;;;;;;5020304;28;20177;-54
2024/01/08 13:22:08;;;;;;;2.40;2.20;;;;;;;;;;5033478;28;20264;-54
2024/01/08 13:24:34;;;;;;;2.87;2.57;;;;;;;;;;5031153;28;20659;-54
2024/01/08 13:27:00;;;;;;;2.50;2.03;;;;;;;;;;5027626;28;20174;-55
2024/01/08 13:29:26;;;;;;;3.57;2.73;;;;;;;;;;5025233;28;20177;-54
2024/01/08 13:31:53;;;;;;;2.80;2.50;;;;;;;;;;5030434;28;20182;-54
2024/01/08 13:34:19;;;;;;;2.77;2.20;;;;;;;;;;5031930;28;20174;-54
2024/01/08 13:36:45;;;;;;;2.60;2.37;;;;;;;;;;5020714;28;20188;-54
2024/01/08 13:39:11;;;;;;;3.97;2.40;;;;;;;;;;5017817;28;20179;-54
2024/01/08 13:41:41;;;;;;;2.33;2.13;;;;;;;;;;5030439;28;20198;-54
2024/01/08 13:44:08;;;;;;;2.60;2.30;;;;;;;;;;5031305;28;20217;-54
2024/01/08 13:46:34;;;;;;;2.70;2.43;;;;;;;;;;5031592;28;20550;-54
2024/01/08 13:49:00;;;;;;;2.77;2.23;;;;;;;;;;5017318;28;20166;-54
2024/01/08 13:51:27;;;;;;;3.00;2.17;;;;;;;;;;5019800;28;20256;-54
2024/01/08 13:53:53;;;;;;;2.47;2.27;;;;;;;;;;5022676;28;20204;-54
2024/01/08 13:56:19;;;;;;;3.03;2.40;;;;;;;;;;5018973;28;20723;-54
2024/01/08 13:58:45;;;;;;;2.67;2.47;;;;;;;;;;5012237;28;20182;-54
2024/01/08 14:01:12;;;;;;;2.60;2.20;;;;;;;;;;5022511;28;20202;-54
2024/01/08 14:03:38;;;;;;;2.77;2.47;;;;;;;;;;5028590;28;20177;-54
2024/01/08 14:06:04;;;;;;;3.23;2.33;;;;;;;;;;5028305;28;20177;-51
2024/01/08 14:08:31;;;;;;;2.33;2.10;;;;;;;;;;5030989;28;20649;-51
2024/01/08 14:10:59;;;;;;;3.00;2.70;;;;;;;;;;5029243;28;20181;-51
2024/01/08 14:13:25;;;;;;;2.53;2.20;;;;;;;;;;5031761;28;20163;-51
2024/01/08 14:15:51;;;;;;;3.13;2.53;;;;;;;;;;5028427;28;20192;-52
2024/01/08 14:18:20;;;;;;;2.77;2.43;;;;;;;;;;5022086;28;20177;-52
2024/01/08 14:20:46;;;;;;;2.80;2.33;;;;;;;;;;5020342;28;20630;-52
2024/01/08 14:23:12;;;;;;;3.10;2.73;;;;;;;;;;5024029;28;20191;-52
2024/01/08 14:25:38;;;;;;;2.97;2.30;;;;;;;;;;5029160;28;20545;-52
2024/01/08 14:28:04;;;;;;;3.30;2.33;;;;;;;;;;5027148;28;20239;-52
2024/01/08 14:30:32;;;;;;;3.47;2.20;;;;;;;;;;5028308;28;20178;-52
2024/01/08 14:32:59;;;;;;;2.67;2.10;;;;;;;;;;5017424;28;20224;-52
2024/01/08 14:35:25;;;;;;;4.27;3.00;;;;;;;;;;5031303;28;20177;-51
2024/01/08 14:37:51;;;;;;;2.70;2.30;;;;;;;;;;5021959;28;20185;-52
2024/01/08 14:40:26;;;;;;;2.83;2.50;;;;;;;;;;5014874;28;20263;-52
2024/01/08 14:42:52;;;;;;;2.77;2.47;;;;;;;;;;5026133;28;20568;-53
2024/01/08 14:45:19;;;;;;;3.00;2.50;;;;;;;;;;5031113;28;20221;-53
2024/01/08 14:47:45;;;;;;;2.90;2.27;;;;;;;;;;5020805;28;20204;-52
2024/01/08 14:50:11;;;;;;;2.40;2.20;;;;;;;;;;5018345;28;20190;-52
2024/01/08 14:52:38;;;;;;;3.43;2.40;;;;;;;;;;5029387;28;20242;-52
2024/01/08 14:55:04;;;;;;;2.80;2.33;;;;;;;;;;5030184;28;20185;-52
2024/01/08 14:57:31;;;;;;;2.80;2.60;;;;;;;;;;5024782;28;20272;-52
2024/01/08 14:59:57;;;;;;;4.00;3.23;;;;;;;;;;5016891;28;20280;-52
2024/01/08 15:02:23;;;;;;;2.87;2.50;;;;;;;;;;5029222;28;20201;-52
2024/01/08 15:04:49;;;;;;;2.70;2.30;;;;;;;;;;5023832;28;20180;-52
2024/01/08 15:07:16;;;;;;;3.53;2.40;;;;;;;;;;5018795;28;20618;-52